Time;durP1;ratioP1;P1;durP2;ratioP2;P2;SDS_P1;SDS_P2;PMS_P1;PMS_P2;Temp;Humidity;BMP_temperature;BMP_pressure;BME280_temperature;BME280_humidity;BME280_pressure;Samples;Min_cycle;Max_cycle;Signal;HPM_P1;HPM_P2
2021/08/27 00:01:37;;;;;;;3.38;0.40;;;;;;;13.99;49.43;101504.34;5032852;28;20043;-71
2021/08/27 00:04:03;;;;;;;6.13;0.47;;;;;;;14.23;48.48;101504.16;5033407;28;20507;-67
2021/08/27 00:06:28;;;;;;;2.55;0.45;;;;;;;14.01;48.67;101501.63;5030226;28;20059;-67
2021/08/27 00:08:54;;;;;;;3.78;0.47;;;;;;;14.04;48.66;101501.50;5031012;28;20048;-73
2021/08/27 00:11:19;;;;;;;3.47;0.35;;;;;;;14.26;47.75;101497.00;5045497;28;20162;-71
2021/08/27 00:13:45;;;;;;;6.30;1.95;;;;;;;13.96;48.44;101499.22;5031321;28;20040;-71
2021/08/27 00:16:10;;;;;;;1.88;0.55;;;;;;;14.04;48.09;101496.25;5043061;28;20103;-68
2021/08/27 00:18:36;;;;;;;9.85;1.23;;;;;;;14.02;47.84;101493.69;5032798;28;20044;-69
2021/08/27 00:21:02;;;;;;;6.10;0.40;;;;;;;14.29;46.99;101494.22;5045110;28;20104;-68
2021/08/27 00:23:27;;;;;;;6.72;0.70;;;;;;;14.30;46.61;101493.31;5048173;28;20061;-70
2021/08/27 00:25:58;;;;;;;5.18;0.40;;;;;;;13.82;47.17;101499.81;5044325;28;20439;-70
2021/08/27 00:28:23;;;;;;;5.28;0.52;;;;;;;14.06;47.01;101484.75;5030746;28;20083;-69
2021/08/27 00:30:49;;;;;;;4.70;0.35;;;;;;;14.02;46.22;101492.84;5031755;28;20041;-70
2021/08/27 00:33:14;;;;;;;5.05;0.47;;;;;;;14.10;45.26;101496.00;5043196;28;20129;-71
2021/08/27 00:35:40;;;;;;;4.75;0.30;;;;;;;13.43;47.18;101497.97;5031758;28;20079;-70
2021/08/27 00:38:06;;;;;;;4.20;0.40;;;;;;;13.71;46.75;101496.81;5031967;28;20057;-71
2021/08/27 00:40:32;;;;;;;0.95;0.10;;;;;;;14.02;46.05;101498.09;5030164;28;20026;-69
2021/08/27 00:42:57;;;;;;;1.67;0.40;;;;;;;14.01;46.24;101493.75;5030649;28;20564;-68
2021/08/27 00:45:23;;;;;;;1.80;0.30;;;;;;;13.68;46.96;101499.59;5034437;28;20032;-70
2021/08/27 00:47:49;;;;;;;7.30;0.55;;;;;;;13.61;48.02;101511.28;5032146;28;20056;-70
2021/08/27 00:50:14;;;;;;;3.00;0.40;;;;;;;13.62;49.01;101511.19;5043226;28;20084;-69
2021/08/27 00:52:40;;;;;;;3.08;0.85;;;;;;;13.47;49.74;101502.19;5030438;28;20036;-68
2021/08/27 00:55:07;;;;;;;7.40;0.88;;;;;;;12.99;51.45;101500.66;5031314;28;20395;-71
2021/08/27 00:57:33;;;;;;;6.93;0.85;;;;;;;13.23;51.17;101503.22;5032536;28;20123;-69
2021/08/27 00:59:58;;;;;;;3.05;1.10;;;;;;;13.21;51.62;101500.63;5029911;28;20406;-69
2021/08/27 01:02:25;;;;;;;2.20;0.82;;;;;;;13.28;51.71;101493.38;5031826;28;20037;-69
2021/08/27 01:04:54;;;;;;;3.78;0.50;;;;;;;12.84;52.94;101489.00;5031178;28;20029;-68
2021/08/27 01:07:22;;;;;;;7.30;0.82;;;;;;;13.39;51.21;101479.78;5028249;28;20033;-69
2021/08/27 01:09:48;;;;;;;9.80;2.15;;;;;;;12.90;53.04;101486.13;5043876;28;20029;-70
2021/08/27 01:12:20;;;;;;;12.02;0.75;;;;;;;13.34;51.81;101477.38;5029763;28;20037;-69
2021/08/27 01:14:53;;;;;;;4.97;0.65;;;;;;;13.44;50.99;101476.03;5016674;28;20095;-69
2021/08/27 01:17:23;;;;;;;4.82;1.05;;;;;;;13.44;51.43;101475.19;5045956;28;20582;-69
2021/08/27 01:20:21;;;;;;;7.10;0.65;;;;;;;13.58;50.65;101482.50;5030836;28;20112;-70
2021/08/27 01:22:58;;;;;;;7.55;0.95;;;;;;;13.50;51.44;101481.03;5028834;28;20171;-68
2021/08/27 01:25:26;;;;;;;1.75;0.38;;;;;;;13.42;51.45;101472.63;5044088;28;20034;-69
2021/08/27 01:27:54;;;;;;;10.70;0.57;;;;;;;13.64;50.25;101477.00;5030309;28;20118;-68
2021/08/27 01:30:33;;;;;;;2.60;0.50;;;;;;;13.39;50.79;101477.16;5031779;28;20033;-69
2021/08/27 01:33:10;;;;;;;2.88;0.20;;;;;;;13.59;50.02;101473.72;5029013;28;20520;-68
2021/08/27 01:35:37;;;;;;;3.67;0.80;;;;;;;13.66;49.31;101483.03;5037001;28;20051;-69
2021/08/27 01:38:06;;;;;;;2.00;0.50;;;;;;;13.71;48.47;101479.28;5043778;28;20067;-70
2021/08/27 01:40:33;;;;;;;1.58;0.40;;;;;;;13.65;48.90;101483.94;5049607;28;20068;-70
2021/08/27 01:43:03;;;;;;;3.28;0.82;;;;;;;13.85;47.48;101481.31;5048054;28;20467;-70
2021/08/27 01:45:31;;;;;;;3.25;0.55;;;;;;;13.70;47.90;101487.25;5034425;28;20041;-70
2021/08/27 01:47:59;;;;;;;7.18;0.60;;;;;;;13.62;47.94;101481.47;5033582;28;20034;-68
2021/08/27 01:50:25;;;;;;;2.25;0.30;;;;;;;13.59;48.02;101484.22;5034477;28;20044;-69
2021/08/27 01:52:51;;;;;;;4.55;1.10;;;;;;;13.83;47.42;101483.16;5036151;28;20037;-69
2021/08/27 01:55:19;;;;;;;4.90;0.82;;;;;;;13.72;47.51;101490.66;5035128;28;20449;-70
2021/08/27 01:57:45;;;;;;;2.50;0.80;;;;;;;13.78;47.73;101490.38;5033191;28;20079;-70
2021/08/27 02:00:11;;;;;;;4.63;0.32;;;;;;;13.94;47.27;101486.16;5048997;28;20048;-69
2021/08/27 02:02:39;;;;;;;5.03;0.40;;;;;;;13.93;47.26;101484.44;5032312;28;20037;-69
2021/08/27 02:05:07;;;;;;;7.10;1.05;;;;;;;13.76;48.20;101480.84;5032862;28;20049;-69
2021/08/27 02:07:33;;;;;;;2.67;0.68;;;;;;;13.73;47.85;101476.59;5031033;28;20451;-68
2021/08/27 02:10:00;;;;;;;6.80;0.60;;;;;;;14.01;46.85;101484.13;5033166;28;20067;-71
2021/08/27 02:12:26;;;;;;;5.72;0.65;;;;;;;13.55;47.75;101485.25;5038843;28;20111;-71
2021/08/27 02:14:55;;;;;;;3.20;0.30;;;;;;;14.05;46.38;101476.91;5048017;28;20075;-71
2021/08/27 02:17:21;;;;;;;1.60;0.40;;;;;;;14.01;46.40;101483.22;5032758;28;20048;-68
2021/08/27 02:19:47;;;;;;;2.13;0.52;;;;;;;14.07;46.17;101475.09;5030687;28;20037;-68
2021/08/27 02:22:16;;;;;;;3.33;0.43;;;;;;;13.78;46.60;101484.25;5034578;28;20139;-68
2021/08/27 02:25:03;;;;;;;5.45;0.20;;;;;;;14.13;45.54;101480.06;5047641;28;20069;-68
2021/08/27 02:27:30;;;;;;;5.82;0.30;;;;;;;14.20;45.63;101478.00;5046980;28;20110;-68
2021/08/27 02:29:58;;;;;;;1.67;0.20;;;;;;;14.06;45.60;101473.38;5036760;28;20034;-68
2021/08/27 02:32:26;;;;;;;3.60;0.52;;;;;;;14.03;45.95;101473.50;5030237;28;20021;-67
2021/08/27 02:34:52;;;;;;;3.70;0.20;;;;;;;13.90;45.97;101484.59;5044863;28;20379;-67
2021/08/27 02:37:21;;;;;;;1.15;0.20;;;;;;;14.12;45.67;101473.97;5032038;28;20116;-67
2021/08/27 02:39:46;;;;;;;3.25;0.73;;;;;;;13.76;46.41;101476.44;5032863;28;20064;-69
2021/08/27 02:42:13;;;;;;;2.38;0.50;;;;;;;13.99;46.52;101464.09;5038636;28;20120;-67
2021/08/27 02:44:38;;;;;;;6.95;0.43;;;;;;;14.07;46.50;101459.31;5032821;28;20037;-67
2021/08/27 02:47:04;;;;;;;3.95;0.25;;;;;;;13.95;47.29;101465.97;5032665;28;20041;-66
2021/08/27 02:49:30;;;;;;;2.25;0.20;;;;;;;14.01;47.52;101463.09;5037123;28;20052;-67
2021/08/27 02:52:18;;;;;;;4.57;0.20;;;;;;;14.03;47.44;101468.25;5032475;28;20033;-69
2021/08/27 02:55:18;;;;;;;3.75;0.50;;;;;;;13.87;47.97;101466.31;5047659;28;20048;-66
2021/08/27 02:57:50;;;;;;;7.47;0.60;;;;;;;13.95;48.03;101471.25;5029537;28;20045;-66
2021/08/27 03:00:17;;;;;;;5.80;0.50;;;;;;;13.74;48.65;101462.50;5035131;28;20094;-70
2021/08/27 03:02:43;;;;;;;1.30;0.40;;;;;;;13.66;48.85;101455.00;5033182;28;20549;-70
2021/08/27 03:05:16;;;;;;;3.95;0.55;;;;;;;13.57;49.12;101460.66;5034202;28;20513;-72
2021/08/27 03:07:49;;;;;;;2.60;0.30;;;;;;;13.62;49.15;101458.66;5032796;28;20044;-72
2021/08/27 03:10:21;;;;;;;7.60;0.40;;;;;;;13.56;49.33;101465.94;5035290;28;20132;-73
2021/08/27 03:12:49;;;;;;;;;;;;;;;13.68;49.05;101462.81;5033032;28;20033;-72
2021/08/27 03:15:53;;;;;;;5.65;0.93;;;;;;;13.69;49.25;101461.88;5034717;28;19925;-72
2021/08/27 03:18:27;;;;;;;2.38;0.68;;;;;;;13.89;48.72;101456.59;5013610;28;20103;-70
2021/08/27 03:20:59;;;;;;;3.22;0.50;;;;;;;13.92;48.74;101459.09;5030854;28;20029;-70
2021/08/27 03:23:29;;;;;;;3.97;0.50;;;;;;;14.15;48.53;101458.03;5039043;28;20037;-70
2021/08/27 03:25:58;;;;;;;5.43;0.50;;;;;;;14.21;48.44;101456.91;5031818;28;20032;-68
2021/08/27 03:28:30;;;;;;;3.00;0.30;;;;;;;14.05;48.98;101456.75;5046792;28;20447;-69
2021/08/27 03:30:56;;;;;;;5.97;0.73;;;;;;;13.71;49.90;101453.00;5037024;28;20029;-68
2021/08/27 03:33:24;;;;;;;6.93;1.75;;;;;;;14.06;49.01;101453.22;5047164;28;20059;-69
2021/08/27 03:35:52;;;;;;;4.43;0.65;;;;;;;14.11;48.05;101458.25;5030455;28;20025;-68
2021/08/27 03:38:26;;;;;;;2.28;0.68;;;;;;;13.85;48.61;101449.78;5030138;28;20442;-67
2021/08/27 03:40:53;;;;;;;3.67;0.40;;;;;;;13.92;47.85;101453.00;5032501;28;20029;-67
2021/08/27 03:43:19;;;;;;;2.03;0.38;;;;;;;13.46;48.91;101450.56;5029786;28;20087;-67
2021/08/27 03:45:47;;;;;;;4.95;0.40;;;;;;;14.21;46.75;101449.03;5031545;28;20108;-65
2021/08/27 03:48:12;;;;;;;4.18;0.30;;;;;;;13.90;47.86;101446.94;5029962;28;20037;-66
2021/08/27 03:50:38;;;;;;;3.53;0.20;;;;;;;14.11;47.37;101439.84;5032028;28;20048;-65
2021/08/27 03:53:06;;;;;;;5.22;0.75;;;;;;;13.95;47.72;101444.97;5030433;28;20090;-66
2021/08/27 03:55:32;;;;;;;2.38;0.60;;;;;;;13.90;47.82;101447.78;5045311;28;20043;-68
2021/08/27 03:57:57;;;;;;;5.18;0.20;;;;;;;14.18;47.27;101441.28;5030179;28;20033;-68
2021/08/27 04:00:23;;;;;;;2.53;0.88;;;;;;;13.59;49.39;101460.59;5032094;28;20036;-68
2021/08/27 04:02:51;;;;;;;2.60;0.25;;;;;;;13.24;51.82;101468.16;5029800;28;20120;-67
2021/08/27 04:05:18;;;;;;;1.95;0.20;;;;;;;13.20;52.28;101453.44;5031073;28;20087;-68
2021/08/27 04:07:45;;;;;;;1.20;0.10;;;;;;;13.40;52.34;101458.69;5031650;28;20067;-67
2021/08/27 04:10:12;;;;;;;1.98;0.55;;;;;;;13.07;53.17;101451.34;5045319;28;20047;-68
2021/08/27 04:12:40;;;;;;;3.97;0.40;;;;;;;13.22;53.29;101456.84;5036005;28;20029;-68
2021/08/27 04:15:10;;;;;;;3.25;0.40;;;;;;;13.18;53.59;101452.66;5033824;28;20056;-70
2021/08/27 04:17:37;;;;;;;1.63;0.20;;;;;;;13.29;53.30;101451.31;5031501;28;20171;-67
2021/08/27 04:20:05;;;;;;;2.42;0.30;;;;;;;13.36;53.05;101446.66;5027068;28;20401;-67
2021/08/27 04:22:30;;;;;;;5.18;0.57;;;;;;;13.43;53.35;101453.34;5031059;28;20036;-66
2021/08/27 04:24:56;;;;;;;5.93;0.90;;;;;;;13.58;52.66;101451.00;5030555;28;20029;-67
2021/08/27 04:27:21;;;;;;;7.07;0.52;;;;;;;13.24;53.92;101447.16;5030775;28;20386;-67
2021/08/27 04:29:47;;;;;;;5.72;0.50;;;;;;;13.26;53.67;101442.69;5034645;28;20112;-67
2021/08/27 04:32:12;;;;;;;5.32;0.50;;;;;;;13.38;53.26;101443.94;5030475;28;20037;-69
2021/08/27 04:34:38;;;;;;;3.20;0.40;;;;;;;13.48;52.32;101446.09;5047225;28;20056;-66
2021/08/27 04:37:03;;;;;;;4.47;0.40;;;;;;;13.56;52.16;101443.13;5022507;28;20144;-65
2021/08/27 04:39:29;;;;;;;3.45;0.25;;;;;;;13.63;52.23;101449.00;5029836;28;20228;-69
2021/08/27 04:41:54;;;;;;;6.57;0.30;;;;;;;13.41;52.98;101447.28;5034814;28;20037;-70
2021/08/27 04:44:20;;;;;;;9.15;0.30;;;;;;;13.51;52.82;101443.34;5033261;28;20041;-66
2021/08/27 04:46:45;;;;;;;3.33;0.35;;;;;;;13.71;52.49;101441.66;5032685;28;20046;-67
2021/08/27 04:49:11;;;;;;;6.30;0.55;;;;;;;13.83;52.39;101446.38;5036719;28;20098;-69
2021/08/27 04:51:36;;;;;;;5.40;0.85;;;;;;;13.79;52.53;101457.09;5035555;28;20040;-67
2021/08/27 04:54:01;;;;;;;7.50;1.42;;;;;;;13.40;53.93;101461.31;5033270;28;20060;-68
2021/08/27 04:56:27;;;;;;;5.90;0.35;;;;;;;13.43;54.35;101450.72;5032201;28;20104;-67
2021/08/27 04:58:53;;;;;;;8.57;0.57;;;;;;;13.19;55.61;101460.47;5030323;28;20055;-68
2021/08/27 05:01:18;;;;;;;6.15;1.10;;;;;;;13.51;54.97;101453.84;5029869;28;20410;-69
2021/08/27 05:03:44;;;;;;;5.68;0.55;;;;;;;13.49;54.93;101458.31;5029470;28;20453;-69
2021/08/27 05:06:09;;;;;;;4.38;0.40;;;;;;;13.64;54.15;101459.44;5027639;28;20464;-70
2021/08/27 05:08:36;;;;;;;7.57;0.30;;;;;;;13.75;54.21;101469.50;5036816;28;20034;-69
2021/08/27 05:11:02;;;;;;;5.90;0.40;;;;;;;13.42;54.91;101462.13;5033368;28;20083;-69
2021/08/27 05:13:27;;;;;;;1.83;0.15;;;;;;;13.62;54.28;101457.81;5035370;28;20522;-70
2021/08/27 05:15:53;;;;;;;8.30;0.45;;;;;;;13.60;54.29;101462.28;5035825;28;20053;-70
2021/08/27 05:18:19;;;;;;;3.88;0.40;;;;;;;13.48;53.98;101467.13;5034180;28;20024;-71
2021/08/27 05:20:45;;;;;;;3.45;0.47;;;;;;;13.50;53.42;101460.03;5036542;28;20064;-71
2021/08/27 05:23:10;;;;;;;3.33;0.25;;;;;;;13.58;53.08;101458.88;5034244;28;20449;-70
2021/08/27 05:25:36;;;;;;;3.80;0.45;;;;;;;13.83;52.57;101462.13;5033738;28;20040;-70
2021/08/27 05:28:01;;;;;;;3.63;0.80;;;;;;;13.93;51.83;101471.28;5038995;28;20474;-71
2021/08/27 05:30:27;;;;;;;9.57;0.57;;;;;;;13.60;52.81;101475.41;5051577;28;20920;-70
2021/08/27 05:32:54;;;;;;;2.28;0.45;;;;;;;13.78;51.95;101469.34;5036923;28;20045;-71
2021/08/27 05:35:20;;;;;;;3.47;0.30;;;;;;;13.90;51.62;101476.69;5035383;28;20436;-70
2021/08/27 05:37:45;;;;;;;3.35;0.45;;;;;;;13.92;51.57;101481.91;5036505;28;20041;-71
2021/08/27 05:40:11;;;;;;;1.90;0.70;;;;;;;13.68;52.27;101484.66;5033598;28;20045;-70
2021/08/27 05:42:41;;;;;;;5.00;0.50;;;;;;;14.12;51.31;101467.84;5032334;28;20040;-69
2021/08/27 05:45:08;;;;;;;7.85;0.70;;;;;;;14.00;51.44;101473.66;5036490;28;20033;-69
2021/08/27 05:47:33;;;;;;;3.20;0.35;;;;;;;14.02;51.36;101475.28;5037869;28;20044;-74
2021/08/27 05:49:59;;;;;;;4.70;0.95;;;;;;;13.99;51.51;101475.44;5040169;28;20032;-73
2021/08/27 05:52:26;;;;;;;6.00;0.60;;;;;;;13.79;51.53;101475.47;5026479;28;20060;-74
2021/08/27 05:54:51;;;;;;;5.25;0.47;;;;;;;13.93;51.35;101478.34;5047900;28;20486;-66
2021/08/27 05:57:17;;;;;;;6.32;0.82;;;;;;;13.35;53.54;101492.19;5034705;28;20040;-68
2021/08/27 05:59:42;;;;;;;11.52;0.75;;;;;;;13.42;53.96;101498.88;5034207;28;20696;-67
2021/08/27 06:02:08;;;;;;;4.85;0.32;;;;;;;16.24;47.13;101488.13;5032608;28;20036;-69
2021/08/27 06:04:34;;;;;;;5.07;0.50;;;;;;;18.14;41.88;101486.78;5034682;28;20513;-69
2021/08/27 06:06:59;;;;;;;4.25;0.63;;;;;;;19.90;38.64;101479.63;5033863;28;20060;-69
2021/08/27 06:09:25;;;;;;;2.60;0.40;;;;;;;18.88;39.00;101481.19;5033342;28;20213;-68
2021/08/27 06:11:50;;;;;;;3.10;0.45;;;;;;;16.31;44.78;101489.47;5034512;28;20037;-69
2021/08/27 06:14:16;;;;;;;5.20;0.22;;;;;;;15.04;47.79;101489.84;5031834;28;20037;-65
2021/08/27 06:16:41;;;;;;;3.75;0.60;;;;;;;14.94;47.70;101499.09;5034320;28;20148;-66
2021/08/27 06:19:07;;;;;;;5.50;0.93;;;;;;;14.92;48.78;101490.41;5041336;28;20051;-68
2021/08/27 06:21:34;;;;;;;2.78;0.50;;;;;;;14.60;49.17;101494.59;5049222;28;20152;-66
2021/08/27 06:24:00;;;;;;;3.72;0.47;;;;;;;14.48;49.62;101494.25;5031702;28;20074;-65
2021/08/27 06:26:25;;;;;;;3.05;0.77;;;;;;;14.85;48.71;101500.38;5033817;28;20593;-66
2021/08/27 06:28:51;;;;;;;2.40;0.40;;;;;;;14.76;48.97;101496.41;5033590;28;20051;-64
2021/08/27 06:31:16;;;;;;;5.50;0.93;;;;;;;14.58;49.27;101497.28;5036118;28;20140;-64
2021/08/27 06:33:42;;;;;;;4.10;0.57;;;;;;;14.28;49.73;101489.88;5034310;28;20480;-66
2021/08/27 06:36:08;;;;;;;8.65;0.60;;;;;;;14.23;50.63;101497.16;5034810;28;20033;-66
2021/08/27 06:38:33;;;;;;;7.35;0.95;;;;;;;14.12;50.56;101489.75;5035248;28;20025;-69
2021/08/27 06:41:02;;;;;;;4.38;1.40;;;;;;;14.91;48.87;101494.00;5035581;28;20026;-68
2021/08/27 06:43:31;;;;;;;3.67;0.40;;;;;;;14.77;48.63;101497.28;5047855;28;20029;-68
2021/08/27 06:46:01;;;;;;;6.10;0.85;;;;;;;14.74;48.71;101487.75;5034155;28;20037;-67
2021/08/27 06:48:27;;;;;;;9.55;0.70;;;;;;;15.00;48.17;101496.16;5046401;28;20515;-70
2021/08/27 06:50:53;;;;;;;10.52;0.88;;;;;;;15.11;47.64;101491.22;5050683;28;20064;-67
2021/08/27 06:53:19;;;;;;;2.45;0.65;;;;;;;14.60;48.68;101490.19;5033640;28;20197;-67
2021/08/27 06:55:45;;;;;;;3.60;1.15;;;;;;;14.81;48.34;101492.72;5031155;28;20064;-67
2021/08/27 06:58:10;;;;;;;1.65;0.65;;;;;;;14.74;48.31;101486.91;5031844;28;20087;-67
2021/08/27 07:00:36;;;;;;;1.88;0.30;;;;;;;14.93;47.70;101487.72;5037730;28;20514;-69
2021/08/27 07:03:01;;;;;;;5.78;0.55;;;;;;;15.04;47.01;101491.63;5032472;28;20029;-69
2021/08/27 07:05:27;;;;;;;10.30;1.08;;;;;;;14.68;48.29;101498.59;5032338;28;20219;-70
2021/08/27 07:07:54;;;;;;;10.38;0.80;;;;;;;14.22;51.05;101505.09;5032564;28;20040;-68
2021/08/27 07:10:20;;;;;;;5.07;0.93;;;;;;;13.50;54.18;101520.44;5030300;28;20078;-68
2021/08/27 07:12:47;;;;;;;2.65;0.35;;;;;;;13.46;54.51;101508.34;5031163;28;20034;-67
2021/08/27 07:15:12;;;;;;;3.00;0.70;;;;;;;13.23;55.19;101513.72;5029900;28;20053;-68
2021/08/27 07:17:38;;;;;;;5.60;0.60;;;;;;;13.31;55.63;101511.59;5032232;28;20049;-68
2021/08/27 07:20:04;;;;;;;3.95;0.40;;;;;;;13.36;55.58;101514.91;5031618;28;20039;-68
2021/08/27 07:22:30;;;;;;;12.05;1.23;;;;;;;13.61;54.70;101516.53;5032648;28;20051;-66
2021/08/27 07:24:55;;;;;;;7.20;1.20;;;;;;;13.31;55.59;101516.84;5030577;28;20029;-67
2021/08/27 07:27:21;;;;;;;8.55;0.93;;;;;;;13.35;55.82;101522.84;5036860;28;20029;-67
2021/08/27 07:29:46;;;;;;;2.67;0.65;;;;;;;12.84;57.22;101527.50;5031137;28;20395;-68
2021/08/27 07:32:12;;;;;;;4.28;0.55;;;;;;;13.10;56.38;101529.94;5030376;28;20045;-65
2021/08/27 07:34:42;;;;;;;8.15;0.60;;;;;;;13.31;55.41;101530.81;5032316;28;20076;-66
2021/08/27 07:37:08;;;;;;;6.82;0.95;;;;;;;13.11;55.82;101529.00;5044747;28;20038;-68
2021/08/27 07:39:35;;;;;;;9.43;0.50;;;;;;;13.00;56.24;101533.84;5033071;28;20116;-67
2021/08/27 07:42:01;;;;;;;4.88;0.40;;;;;;;12.92;56.88;101535.94;5030172;28;20029;-68
2021/08/27 07:44:27;;;;;;;9.60;1.95;;;;;;;13.00;56.70;101535.63;5047182;28;20397;-65
2021/08/27 07:46:53;;;;;;;6.47;0.80;;;;;;;13.28;56.44;101527.50;5030789;28;20067;-68
2021/08/27 07:49:18;;;;;;;7.03;0.85;;;;;;;13.30;56.42;101520.41;5031958;28;20048;-67
2021/08/27 07:51:46;;;;;;;6.53;0.45;;;;;;;13.22;56.43;101522.47;5030883;28;20544;-69
2021/08/27 07:54:15;;;;;;;2.08;0.25;;;;;;;13.67;55.15;101521.50;5031076;28;20029;-67
2021/08/27 07:56:40;;;;;;;3.83;0.85;;;;;;;13.54;55.39;101523.78;5033179;28;20434;-68
2021/08/27 07:59:06;;;;;;;6.47;0.88;;;;;;;13.84;55.14;101515.53;5030107;28;20094;-65
2021/08/27 08:01:32;;;;;;;8.98;0.63;;;;;;;13.86;55.06;101516.31;5033069;28;20044;-68
2021/08/27 08:03:57;;;;;;;10.05;0.88;;;;;;;14.42;53.40;101514.72;5048267;28;20029;-67
2021/08/27 08:06:23;;;;;;;4.60;1.10;;;;;;;14.31;54.08;101525.69;5030561;28;20033;-69
2021/08/27 08:08:50;;;;;;;7.93;0.90;;;;;;;14.13;54.06;101522.13;5044594;28;20312;-69
2021/08/27 08:11:16;;;;;;;3.40;0.52;;;;;;;14.24;54.14;101527.75;5046705;28;20021;-67
2021/08/27 08:13:42;;;;;;;5.45;0.73;;;;;;;14.25;53.93;101521.56;5030482;28;20056;-68
2021/08/27 08:16:08;;;;;;;5.38;0.55;;;;;;;14.75;52.61;101521.03;5013274;28;20033;-68
2021/08/27 08:18:35;;;;;;;3.90;1.05;;;;;;;14.20;53.56;101526.19;5029627;28;20041;-68
2021/08/27 08:21:02;;;;;;;8.60;1.30;;;;;;;14.80;51.84;101526.09;5031525;28;20033;-67
2021/08/27 08:23:27;;;;;;;3.72;0.32;;;;;;;14.50;51.91;101531.00;5031850;28;20119;-67
2021/08/27 08:25:53;;;;;;;5.53;0.65;;;;;;;14.54;51.99;101530.81;5028287;28;20152;-68
2021/08/27 08:28:19;;;;;;;3.72;1.00;;;;;;;14.49;52.03;101530.13;5029895;28;20059;-68
2021/08/27 08:30:44;;;;;;;3.63;0.70;;;;;;;14.52;52.33;101531.78;5027759;28;20576;-68
2021/08/27 08:33:10;;;;;;;7.07;0.65;;;;;;;14.46;52.45;101538.19;5043941;28;20029;-70
2021/08/27 08:35:35;;;;;;;5.88;0.50;;;;;;;14.40;52.10;101534.94;5028372;28;20147;-68
2021/08/27 08:38:01;;;;;;;6.60;0.95;;;;;;;14.40;52.00;101534.94;5029059;28;20025;-68
2021/08/27 08:40:26;;;;;;;1.67;0.40;;;;;;;14.87;51.26;101539.81;5030901;28;20567;-69
2021/08/27 08:42:52;;;;;;;5.65;0.50;;;;;;;14.97;50.81;101539.28;5045310;28;20029;-69
2021/08/27 08:45:18;;;;;;;8.65;0.50;;;;;;;14.83;51.43;101539.09;5026891;28;20037;-69
2021/08/27 08:47:47;;;;;;;2.47;0.95;;;;;;;15.34;49.80;101531.41;5028392;28;20512;-68
2021/08/27 08:50:16;;;;;;;4.20;0.93;;;;;;;15.09;49.62;101534.34;5027279;28;20037;-68
2021/08/27 08:52:42;;;;;;;2.28;0.50;;;;;;;15.29;49.51;101541.31;5043661;28;20071;-70
2021/08/27 08:55:08;;;;;;;3.33;0.30;;;;;;;15.11;49.32;101545.66;5025277;28;20037;-66
2021/08/27 08:57:34;;;;;;;4.78;0.85;;;;;;;15.37;49.03;101544.41;5025949;28;20479;-68
2021/08/27 08:59:59;;;;;;;3.95;0.40;;;;;;;15.22;48.67;101542.56;5030992;28;20034;-67
2021/08/27 09:02:27;;;;;;;2.15;0.60;;;;;;;15.16;48.70;101544.50;5030422;28;20341;-66
2021/08/27 09:04:53;;;;;;;5.25;0.30;;;;;;;14.32;50.87;101543.16;5028018;28;20120;-68
2021/08/27 09:07:19;;;;;;;3.65;1.27;;;;;;;14.44;50.99;101554.97;5028167;28;20040;-68
2021/08/27 09:09:44;;;;;;;2.53;0.32;;;;;;;14.71;50.86;101550.19;5029194;28;20064;-68
2021/08/27 09:12:30;;;;;;;1.88;0.20;;;;;;;15.13;49.51;101549.94;5030266;28;20029;-68
2021/08/27 09:15:03;;;;;;;6.53;0.70;;;;;;;15.82;48.12;101550.94;5030039;28;20048;-68
2021/08/27 09:17:30;;;;;;;5.43;0.65;;;;;;;15.64;48.17;101546.56;5033399;28;20149;-69
2021/08/27 09:19:56;;;;;;;6.70;1.67;;;;;;;15.66;48.36;101550.88;5030526;28;20045;-68
2021/08/27 09:22:22;;;;;;;6.00;0.65;;;;;;;15.86;47.67;101549.81;5028711;28;20037;-67
2021/08/27 09:25:08;;;;;;;5.82;1.05;;;;;;;16.02;47.14;101554.31;5032861;28;20434;-71
2021/08/27 09:27:37;;;;;;;6.72;1.25;;;;;;;15.94;47.10;101560.81;5027812;28;20092;-68
2021/08/27 09:30:10;;;;;;;3.10;0.38;;;;;;;16.07;46.72;101547.06;5028599;28;20028;-68
2021/08/27 09:32:36;;;;;;;3.53;0.40;;;;;;;15.74;47.74;101558.38;5044811;28;20043;-68
2021/08/27 09:35:18;;;;;;;3.40;0.50;;;;;;;15.80;48.33;101564.19;5040141;28;20037;-69
2021/08/27 09:37:51;;;;;;;;;;;;;;;15.47;48.87;101558.84;5031097;28;20643;-67
2021/08/27 09:40:18;;;;;;;7.25;0.63;;;;;;;14.94;49.65;101562.25;5030001;28;19923;-67
2021/08/27 09:42:49;;;;;;;1.85;0.43;;;;;;;15.36;48.67;101569.06;5032290;28;20076;-68
2021/08/27 09:45:15;;;;;;;2.33;0.90;;;;;;;15.99;47.14;101565.84;5028612;28;20306;-68
2021/08/27 09:48:03;;;;;;;8.80;1.25;;;;;;;15.61;47.02;101575.72;5030636;28;20078;-67
2021/08/27 09:50:32;;;;;;;1.83;0.38;;;;;;;15.64;47.41;101579.06;5035747;28;20115;-67
2021/08/27 09:53:01;;;;;;;2.83;0.43;;;;;;;15.66;47.22;101571.06;5032438;28;20104;-68
2021/08/27 09:55:29;;;;;;;6.07;0.85;;;;;;;15.89;46.99;101572.56;5029673;28;20081;-68
2021/08/27 09:58:02;;;;;;;4.70;0.40;;;;;;;15.64;47.38;101572.94;5027587;28;20386;-67
2021/08/27 10:00:33;;;;;;;2.38;0.60;;;;;;;16.14;46.07;101572.16;5031738;28;20033;-68
2021/08/27 10:03:02;;;;;;;5.75;1.60;;;;;;;15.67;46.55;101562.25;5034544;28;20102;-70
2021/08/27 10:05:38;;;;;;;8.50;0.40;;;;;;;16.03;45.22;101569.22;5037309;28;20684;-70
2021/08/27 10:08:21;;;;;;;5.45;0.50;;;;;;;15.99;46.59;101566.72;5048754;28;20040;-69
2021/08/27 10:10:55;;;;;;;5.82;0.68;;;;;;;16.40;46.36;101563.72;5037574;28;20029;-69
2021/08/27 10:13:23;;;;;;;6.30;1.08;;;;;;;16.83;45.31;101566.66;5028838;28;20037;-68
2021/08/27 10:15:49;;;;;;;5.55;0.50;;;;;;;16.67;44.01;101567.59;5033457;28;20747;-68
2021/08/27 10:18:14;;;;;;;4.20;0.45;;;;;;;16.64;44.96;101573.84;5031302;28;20061;-69
2021/08/27 10:20:42;;;;;;;4.25;0.32;;;;;;;17.09;44.29;101567.00;5031882;28;20457;-71
2021/08/27 10:23:09;;;;;;;7.68;0.75;;;;;;;17.16;44.04;101559.59;5044431;28;20682;-69
2021/08/27 10:25:37;;;;;;;6.13;0.65;;;;;;;17.03;43.75;101560.25;5034409;28;20184;-69
2021/08/27 10:28:04;;;;;;;4.97;0.50;;;;;;;17.50;43.04;101566.44;5041835;28;20037;-69
2021/08/27 10:30:48;;;;;;;4.60;0.35;;;;;;;17.79;42.17;101558.56;5028928;28;20512;-70
2021/08/27 10:33:17;;;;;;;5.05;0.65;;;;;;;17.51;43.32;101564.63;5030613;28;20033;-70
2021/08/27 10:35:47;;;;;;;4.25;0.40;;;;;;;17.35;43.08;101556.72;5032571;28;20033;-69
2021/08/27 10:38:52;;;;;;;7.35;0.60;;;;;;;16.72;44.41;101555.81;5035842;28;20037;-70
2021/08/27 10:41:20;;;;;;;3.55;0.70;;;;;;;16.98;43.78;101554.41;5034927;28;20041;-68
2021/08/27 10:44:00;;;;;;;2.72;0.95;;;;;;;17.54;43.17;101552.09;5031442;28;20044;-68
2021/08/27 10:46:44;;;;;;;4.53;0.77;;;;;;;17.15;43.92;101557.88;5032436;28;20063;-68
2021/08/27 10:49:39;;;;;;;2.17;0.40;;;;;;;16.95;43.57;101553.72;5030091;28;20049;-68
2021/08/27 10:52:36;;;;;;;1.75;0.40;;;;;;;16.78;43.69;101552.88;5030905;28;20409;-67
2021/08/27 10:55:02;;;;;;;8.02;0.98;;;;;;;17.86;42.27;101551.97;5041990;28;20040;-68
2021/08/27 10:57:27;;;;;;;6.20;0.68;;;;;;;16.90;43.13;101556.63;5043539;28;20036;-68
2021/08/27 10:59:59;;;;;;;2.53;0.47;;;;;;;18.25;40.29;101548.72;5045056;28;20044;-69
2021/08/27 11:02:25;;;;;;;5.03;0.52;;;;;;;18.31;39.83;101551.91;5034387;28;20116;-69
2021/08/27 11:04:51;;;;;;;1.73;0.38;;;;;;;17.98;40.42;101556.53;5031885;28;20535;-69
2021/08/27 11:07:26;;;;;;;2.42;0.38;;;;;;;17.84;40.52;101554.69;5037684;28;20119;-68
2021/08/27 11:10:14;;;;;;;1.83;0.50;;;;;;;17.92;41.06;101553.41;5027485;28;20040;-69
2021/08/27 11:12:40;;;;;;;4.50;0.77;;;;;;;17.79;41.43;101551.47;5029784;28;20076;-69
2021/08/27 11:15:30;;;;;;;8.18;1.20;;;;;;;17.39;42.23;101558.25;5027193;28;20107;-68
2021/08/27 11:18:32;;;;;;;2.13;0.57;;;;;;;18.04;40.85;101540.25;5029761;28;20037;-69
2021/08/27 11:20:57;;;;;;;3.03;0.30;;;;;;;18.04;40.73;101545.56;5031559;28;20279;-69
2021/08/27 11:23:23;;;;;;;3.25;0.52;;;;;;;17.85;41.48;101550.28;5027530;28;20765;-68
2021/08/27 11:26:05;;;;;;;1.65;0.30;;;;;;;18.01;40.56;101551.03;5033404;28;20111;-67
2021/08/27 11:28:32;;;;;;;8.15;0.82;;;;;;;17.76;41.92;101545.50;5040343;28;20033;-68
2021/08/27 11:31:01;;;;;;;6.85;0.43;;;;;;;17.70;41.63;101561.78;5033599;28;20120;-69